San Luis Obispo (SBP/KSBP)

Map

Destinations

Information

Location
San Luis Obispo, CA
Local Time
16:25 / 4:25 pm
GMT Time
00:25 / 12:25 am
Gates
Unassigned
No FAA reported delays
METAR KSBP 222356Z 30018KT 10SM SCT023 14/06 A3014 RMK AO2 SLP206 T01390061 10161 20139 56009
TAF KSBP 222339Z 2300/2324 32020G30KT P6SM SCT040 FM230200 32014KT P6SM FEW040 FM230400 33008KT P6SM SKC FM231600 33010KT P6SM SKC FM232000 33015G23KT P6SM SKC
  • No charts available